createdAt,value
2022-12-17T00:00:42.368Z,4.07
2022-12-17T00:03:29.831Z,4.25
2022-12-17T00:06:15.799Z,4.10
2022-12-17T00:09:02.065Z,3.85
2022-12-17T00:14:34.092Z,4.00
2022-12-17T00:17:20.013Z,3.83
2022-12-17T00:20:07.474Z,3.97
2022-12-17T00:22:53.435Z,4.32
2022-12-17T00:25:39.717Z,4.07
2022-12-17T00:31:13.773Z,4.20
2022-12-17T00:33:59.841Z,4.30
2022-12-17T00:37:01.567Z,3.92
2022-12-17T00:39:52.517Z,3.90
2022-12-17T00:42:42.137Z,4.30
2022-12-17T00:45:28.634Z,3.60
2022-12-17T00:48:14.706Z,3.53
2022-12-17T00:51:00.659Z,4.18
2022-12-17T00:53:47.994Z,4.25
2022-12-17T00:56:33.901Z,3.90
2022-12-17T00:59:19.930Z,3.80
2022-12-17T01:02:06.302Z,3.80
2022-12-17T01:04:52.321Z,4.00
2022-12-17T01:07:37.469Z,3.30
2022-12-17T01:10:25.368Z,3.85
2022-12-17T01:13:11.468Z,3.63
2022-12-17T01:15:57.570Z,3.88
2022-12-17T01:18:44.229Z,3.85
2022-12-17T01:24:15.947Z,3.25
2022-12-17T01:29:49.792Z,3.60
2022-12-17T01:32:37.217Z,3.55
2022-12-17T01:35:23.426Z,3.90
2022-12-17T01:38:09.509Z,3.83
2022-12-17T01:40:56.166Z,3.72
2022-12-17T01:43:52.255Z,4.22
2022-12-17T01:46:38.885Z,3.30
2022-12-17T01:49:27.018Z,3.60
2022-12-17T01:52:14.200Z,3.50
2022-12-17T01:54:59.983Z,3.58
2022-12-17T01:57:46.187Z,4.00
2022-12-17T02:03:32.085Z,4.00
2022-12-17T02:06:23.303Z,4.03
2022-12-17T02:09:19.363Z,3.45
2022-12-17T02:12:13.888Z,3.90
2022-12-17T02:15:04.638Z,3.88
2022-12-17T02:17:59.643Z,3.30
2022-12-17T02:20:50.490Z,3.75
2022-12-17T02:23:56.573Z,3.60
2022-12-17T02:26:54.527Z,3.80
2022-12-17T02:29:42.398Z,3.58
2022-12-17T02:32:30.884Z,3.25
2022-12-17T02:35:18.924Z,3.70
2022-12-17T02:38:06.003Z,3.22
2022-12-17T02:41:06.298Z,3.10
2022-12-17T02:43:54.146Z,3.17
2022-12-17T02:46:40.673Z,3.58
2022-12-17T02:49:26.858Z,3.25
2022-12-17T02:52:13.839Z,3.22
2022-12-17T02:54:59.673Z,3.20
2022-12-17T02:57:48.474Z,3.70
2022-12-17T03:00:39.603Z,3.78
2022-12-17T03:03:26.163Z,3.58
2022-12-17T03:06:12.483Z,3.42
2022-12-17T03:09:01.437Z,3.58
2022-12-17T03:11:47.914Z,3.45
2022-12-17T03:14:34.498Z,3.75
2022-12-17T03:17:21.775Z,3.35
2022-12-17T03:20:08.020Z,3.33
2022-12-17T03:25:39.727Z,3.70
2022-12-17T03:28:27.527Z,3.60
2022-12-17T03:31:16.162Z,3.55
2022-12-17T03:34:06.891Z,3.65
2022-12-17T03:36:52.916Z,3.83
2022-12-17T03:39:39.119Z,3.33
2022-12-17T03:42:25.332Z,3.20
2022-12-17T03:45:11.356Z,3.50
2022-12-17T03:47:57.598Z,3.20
2022-12-17T03:53:30.823Z,3.08
2022-12-17T03:56:16.214Z,3.53
2022-12-17T03:59:02.484Z,3.17
2022-12-17T04:04:34.130Z,3.25
2022-12-17T04:07:21.531Z,3.00
2022-12-17T04:10:07.832Z,3.33
2022-12-17T04:15:39.583Z,3.42
2022-12-17T04:18:25.995Z,3.25
2022-12-17T04:21:12.091Z,3.42
2022-12-17T04:23:59.401Z,3.40
2022-12-17T04:26:45.253Z,3.50
2022-12-17T04:29:31.373Z,3.13
2022-12-17T04:32:17.572Z,3.28
2022-12-17T04:35:03.868Z,3.13
2022-12-17T04:40:40.974Z,3.67
2022-12-17T04:43:28.687Z,3.40
2022-12-17T04:46:14.718Z,3.22
2022-12-17T04:49:00.434Z,3.30
2022-12-17T04:51:46.819Z,3.17
2022-12-17T04:57:19.744Z,2.95
2022-12-17T05:00:05.935Z,3.10
2022-12-17T05:05:38.221Z,3.42
2022-12-17T05:08:24.371Z,2.97
2022-12-17T05:11:10.495Z,3.50
2022-12-17T05:13:57.683Z,3.28
2022-12-17T05:16:43.800Z,2.83
2022-12-17T05:19:29.992Z,3.28
2022-12-17T05:22:15.946Z,3.05
2022-12-17T05:25:01.827Z,3.25
2022-12-17T05:27:47.955Z,3.30
2022-12-17T05:30:35.925Z,3.80
2022-12-17T05:33:39.837Z,3.40
2022-12-17T05:36:26.693Z,3.17
2022-12-17T05:39:12.877Z,3.15
2022-12-17T05:41:59.159Z,3.15
2022-12-17T05:47:32.283Z,2.97
2022-12-17T05:50:18.439Z,3.05
2022-12-17T05:53:04.461Z,3.15
2022-12-17T05:55:50.378Z,3.13
2022-12-17T05:58:36.536Z,3.45
2022-12-17T06:01:24.180Z,3.58
2022-12-17T06:04:11.535Z,3.53
2022-12-17T06:06:59.761Z,3.70
2022-12-17T06:09:45.940Z,3.10
2022-12-17T06:12:32.047Z,3.55
2022-12-17T06:15:18.224Z,3.03
2022-12-17T06:18:22.579Z,3.10
2022-12-17T06:21:10.908Z,3.17
2022-12-17T06:23:57.145Z,3.42
2022-12-17T06:26:43.279Z,3.20
2022-12-17T06:29:29.304Z,3.03
2022-12-17T06:32:15.509Z,2.65
2022-12-17T06:35:01.599Z,3.00
2022-12-17T06:37:48.922Z,2.90
2022-12-17T06:40:37.838Z,2.90
2022-12-17T06:43:24.004Z,3.42
2022-12-17T06:46:10.604Z,3.33
2022-12-17T06:48:56.717Z,2.88
2022-12-17T06:51:42.835Z,3.00
2022-12-17T06:54:30.210Z,3.75
2022-12-17T06:57:16.373Z,2.90
2022-12-17T07:00:02.627Z,2.55
2022-12-17T07:02:48.794Z,2.97
2022-12-17T07:05:35.167Z,2.70
2022-12-17T07:08:21.116Z,3.17
2022-12-17T07:11:08.259Z,3.92
2022-12-17T07:13:54.418Z,4.55
2022-12-17T07:16:40.599Z,4.70
2022-12-17T07:19:27.721Z,3.70
2022-12-17T07:22:14.806Z,4.10
2022-12-17T07:25:00.887Z,3.85
2022-12-17T07:27:48.277Z,3.80
2022-12-17T07:30:34.494Z,3.47
2022-12-17T07:36:07.128Z,3.63
2022-12-17T07:39:07.779Z,3.58
2022-12-17T07:41:53.905Z,3.78
2022-12-17T07:44:56.719Z,3.80
2022-12-17T07:47:42.498Z,3.47
2022-12-17T07:50:28.162Z,3.42
2022-12-17T07:53:18.432Z,3.15
2022-12-17T07:56:04.339Z,3.45
2022-12-17T07:58:50.383Z,3.50
2022-12-17T08:01:37.802Z,3.58
2022-12-17T08:04:23.952Z,3.30
2022-12-17T08:07:13.859Z,3.22
2022-12-17T08:10:00.327Z,3.42
2022-12-17T08:12:46.242Z,3.40
2022-12-17T08:15:32.347Z,3.60
2022-12-17T08:18:25.886Z,3.47
2022-12-17T08:21:12.735Z,2.80
2022-12-17T08:23:58.971Z,3.35
2022-12-17T08:29:34.272Z,3.10
2022-12-17T08:32:16.715Z,3.30
2022-12-17T08:35:04.023Z,3.10
2022-12-17T08:37:49.874Z,3.22
2022-12-17T08:40:36.075Z,3.10
2022-12-17T08:43:22.234Z,3.63
2022-12-17T08:46:11.887Z,3.33
2022-12-17T08:48:58.247Z,3.30
2022-12-17T08:54:31.455Z,2.85
2022-12-17T09:00:18.335Z,2.90
2022-12-17T09:03:04.581Z,3.28
2022-12-17T09:05:50.709Z,3.40
2022-12-17T09:08:38.026Z,3.30
2022-12-17T09:11:24.059Z,3.15
2022-12-17T09:14:10.507Z,2.90
2022-12-17T09:16:56.487Z,3.22
2022-12-17T09:19:42.396Z,3.20
2022-12-17T09:22:28.646Z,3.28
2022-12-17T09:28:01.207Z,3.85
2022-12-17T09:30:47.274Z,3.17
2022-12-17T09:33:34.452Z,2.97
2022-12-17T09:36:22.155Z,3.35
2022-12-17T09:39:08.641Z,3.50
2022-12-17T09:42:03.487Z,2.83
2022-12-17T09:44:57.796Z,3.20
2022-12-17T09:47:52.625Z,3.00
2022-12-17T09:50:39.051Z,3.00
2022-12-17T09:53:39.368Z,3.03
2022-12-17T09:56:29.051Z,2.72
2022-12-17T09:59:17.010Z,2.90
2022-12-17T10:02:03.104Z,2.40
2022-12-17T10:07:41.103Z,3.10
2022-12-17T10:10:36.120Z,2.70
2022-12-17T10:13:29.056Z,3.15
2022-12-17T10:16:16.610Z,2.90
2022-12-17T10:19:03.139Z,2.53
2022-12-17T10:21:49.004Z,3.10
2022-12-17T10:24:35.265Z,2.88
2022-12-17T10:30:13.016Z,2.67
2022-12-17T10:33:00.385Z,2.80
2022-12-17T10:35:54.887Z,3.08
2022-12-17T10:38:42.979Z,3.10
2022-12-17T10:41:38.914Z,3.10
2022-12-17T10:44:40.771Z,3.22
2022-12-17T10:47:30.407Z,2.78
2022-12-17T10:50:19.511Z,2.67
2022-12-17T10:53:07.199Z,3.00
2022-12-17T10:55:54.234Z,3.63
2022-12-17T10:58:43.429Z,4.60
2022-12-17T11:01:31.799Z,3.35
2022-12-17T11:04:17.846Z,4.20
2022-12-17T11:07:07.411Z,3.75
2022-12-17T11:10:07.017Z,3.55
2022-12-17T11:13:00.199Z,3.55
2022-12-17T11:15:52.564Z,3.22
2022-12-17T11:21:30.414Z,3.28
2022-12-17T11:24:22.713Z,3.70
2022-12-17T11:27:12.278Z,3.33
2022-12-17T11:29:58.442Z,3.50
2022-12-17T11:33:05.789Z,3.42
2022-12-17T11:35:58.586Z,3.13
2022-12-17T11:38:57.159Z,3.60
2022-12-17T11:41:53.942Z,3.40
2022-12-17T11:44:55.183Z,3.63
2022-12-17T11:47:54.903Z,3.17
2022-12-17T11:50:51.235Z,3.13
2022-12-17T11:53:59.757Z,3.35
2022-12-17T11:56:53.688Z,3.05
2022-12-17T11:59:52.693Z,3.22
2022-12-17T12:03:00.414Z,3.17
2022-12-17T12:05:56.956Z,3.28
2022-12-17T12:08:57.188Z,3.63
2022-12-17T12:11:51.612Z,3.28
2022-12-17T12:14:49.864Z,3.25
2022-12-17T12:17:50.829Z,3.42
2022-12-17T12:20:57.662Z,2.63
2022-12-17T12:23:55.894Z,2.97
2022-12-17T12:26:46.319Z,3.10
2022-12-17T12:29:45.592Z,2.70
2022-12-17T12:32:39.019Z,3.15
2022-12-17T12:35:33.128Z,2.85
2022-12-17T12:38:20.907Z,3.10
2022-12-17T12:41:13.491Z,3.20
2022-12-17T12:44:06.345Z,3.05
2022-12-17T12:46:59.807Z,2.90
2022-12-17T12:49:53.109Z,3.15
2022-12-17T12:52:42.877Z,3.25
2022-12-17T12:55:29.218Z,3.35
2022-12-17T12:58:17.474Z,4.03
2022-12-17T13:01:13.242Z,4.40
2022-12-17T13:04:08.523Z,4.35
2022-12-17T13:06:43.506Z,5.18
2022-12-17T13:09:34.542Z,5.25
2022-12-17T13:12:19.287Z,4.78
2022-12-17T13:14:54.530Z,4.70
2022-12-17T13:17:29.807Z,5.38
2022-12-17T13:20:21.832Z,4.35
2022-12-17T13:22:52.247Z,4.00
2022-12-17T13:25:22.776Z,4.03
2022-12-17T13:27:51.878Z,4.30
2022-12-17T13:30:24.512Z,4.57
2022-12-17T13:33:05.752Z,4.10
2022-12-17T13:35:42.527Z,3.90
2022-12-17T13:38:18.903Z,4.00
2022-12-17T13:40:54.347Z,3.90
2022-12-17T13:43:28.331Z,4.00
2022-12-17T13:45:57.588Z,4.15
2022-12-17T13:48:28.405Z,4.25
2022-12-17T13:51:00.822Z,4.18
2022-12-17T13:53:33.770Z,3.50
2022-12-17T13:56:02.606Z,3.80
2022-12-17T13:58:33.156Z,4.10
2022-12-17T14:01:09.287Z,3.47
2022-12-17T14:04:05.736Z,3.80
2022-12-17T14:06:38.553Z,3.97
2022-12-17T14:09:07.641Z,4.13
2022-12-17T14:11:56.175Z,4.50
2022-12-17T14:14:31.434Z,4.22
2022-12-17T14:17:00.501Z,4.03
2022-12-17T14:19:31.547Z,4.20
2022-12-17T14:22:02.265Z,4.03
2022-12-17T14:24:30.994Z,4.00
2022-12-17T14:27:01.188Z,3.67
2022-12-17T14:29:32.426Z,3.63
2022-12-17T14:32:03.486Z,4.32
2022-12-17T14:34:42.023Z,4.13
2022-12-17T14:37:19.713Z,4.10
2022-12-17T14:39:49.749Z,4.30
2022-12-17T14:42:29.293Z,4.78
2022-12-17T14:45:00.396Z,4.90
2022-12-17T14:47:30.740Z,4.28
2022-12-17T14:50:05.816Z,4.63
2022-12-17T14:52:44.835Z,4.43
2022-12-17T14:55:24.166Z,4.30
2022-12-17T14:57:53.652Z,4.45
2022-12-17T15:00:22.595Z,4.35
2022-12-17T15:02:53.718Z,3.97
2022-12-17T15:05:22.328Z,4.43
2022-12-17T15:07:52.447Z,4.50
2022-12-17T15:10:21.683Z,4.40
2022-12-17T15:12:51.448Z,4.40
2022-12-17T15:15:20.858Z,4.20
2022-12-17T15:17:49.347Z,4.30
2022-12-17T15:20:20.114Z,4.20
2022-12-17T15:22:49.191Z,4.07
2022-12-17T15:25:20.436Z,5.47
2022-12-17T15:27:48.839Z,5.28
2022-12-17T15:30:18.833Z,5.60
2022-12-17T15:32:47.330Z,5.30
2022-12-17T15:35:16.048Z,6.60
2022-12-17T15:37:44.655Z,6.00
2022-12-17T15:40:13.628Z,5.80
2022-12-17T15:43:06.028Z,5.65
2022-12-17T15:45:34.782Z,6.18
2022-12-17T15:48:03.311Z,5.93
2022-12-17T15:50:31.813Z,5.88
2022-12-17T15:53:00.279Z,6.00
2022-12-17T15:55:28.869Z,5.78
2022-12-17T15:57:59.033Z,5.97
2022-12-17T16:00:27.674Z,5.88
2022-12-17T16:02:56.465Z,5.95
2022-12-17T16:05:25.199Z,5.55
2022-12-17T16:07:53.731Z,5.70
2022-12-17T16:10:22.460Z,4.85
2022-12-17T16:12:50.944Z,6.45
2022-12-17T16:15:20.847Z,5.20
2022-12-17T16:17:49.495Z,5.43
2022-12-17T16:20:18.275Z,5.25
2022-12-17T16:22:46.987Z,6.15
2022-12-17T16:25:15.587Z,6.03
2022-12-17T16:27:44.379Z,5.13
2022-12-17T16:30:14.355Z,5.45
2022-12-17T16:32:44.563Z,5.85
2022-12-17T16:35:14.173Z,5.70
2022-12-17T16:37:42.754Z,5.28
2022-12-17T16:40:12.693Z,5.30
2022-12-17T16:42:41.505Z,5.60
2022-12-17T16:45:10.893Z,5.10
2022-12-17T16:47:39.360Z,5.28
2022-12-17T16:50:09.446Z,5.72
2022-12-17T16:52:37.947Z,5.30
2022-12-17T16:55:07.100Z,4.80
2022-12-17T16:57:35.537Z,4.95
2022-12-17T17:00:04.746Z,5.20
2022-12-17T17:02:33.551Z,5.10
2022-12-17T17:05:02.161Z,5.00
2022-12-17T17:07:31.951Z,5.05
2022-12-17T17:10:00.394Z,5.32
2022-12-17T17:12:29.132Z,4.88
2022-12-17T17:14:57.685Z,4.75
2022-12-17T17:17:54.550Z,4.70
2022-12-17T17:20:14.928Z,4.95
2022-12-17T17:22:44.928Z,5.40
2022-12-17T17:25:13.478Z,5.22
2022-12-17T17:27:42.105Z,4.70
2022-12-17T17:30:11.958Z,3.55
2022-12-17T17:32:40.475Z,4.05
2022-12-17T17:35:09.599Z,3.70
2022-12-17T17:37:38.130Z,3.90
2022-12-17T17:40:09.556Z,3.90
2022-12-17T17:42:38.013Z,4.32
2022-12-17T17:45:08.873Z,3.70
2022-12-17T17:47:37.341Z,4.35
2022-12-17T17:50:06.855Z,3.97
2022-12-17T17:52:35.399Z,3.50
2022-12-17T17:55:03.933Z,4.22
2022-12-17T17:57:33.860Z,3.55
2022-12-17T18:00:02.596Z,3.50
2022-12-17T18:02:34.117Z,3.72
2022-12-17T18:05:02.683Z,4.32
2022-12-17T18:07:31.179Z,3.88
2022-12-17T18:09:59.846Z,3.58
2022-12-17T18:12:45.817Z,4.00
2022-12-17T18:15:18.142Z,3.33
2022-12-17T18:17:50.311Z,3.20
2022-12-17T18:20:19.348Z,3.42
2022-12-17T18:22:47.812Z,4.00
2022-12-17T18:25:16.726Z,3.78
2022-12-17T18:27:45.327Z,3.60
2022-12-17T18:30:16.190Z,3.55
2022-12-17T18:32:44.761Z,4.22
2022-12-17T18:35:13.319Z,3.45
2022-12-17T18:37:41.856Z,3.83
2022-12-17T18:40:11.411Z,3.42
2022-12-17T18:42:57.325Z,3.60
2022-12-17T18:45:27.111Z,3.45
2022-12-17T18:47:55.497Z,3.65
2022-12-17T18:50:23.976Z,3.30
2022-12-17T18:52:52.431Z,3.40
2022-12-17T18:55:20.935Z,3.53
2022-12-17T18:57:49.460Z,3.25
2022-12-17T19:00:18.365Z,3.28
2022-12-17T19:02:48.336Z,4.00
2022-12-17T19:05:16.962Z,3.80
2022-12-17T19:07:45.443Z,3.92
2022-12-17T19:10:14.044Z,4.15
2022-12-17T19:12:43.605Z,3.67
2022-12-17T19:15:12.145Z,3.30
2022-12-17T19:17:40.632Z,3.67
2022-12-17T19:20:11.737Z,3.88
2022-12-17T19:22:40.264Z,3.38
2022-12-17T19:25:09.480Z,3.42
2022-12-17T19:27:38.012Z,3.50
2022-12-17T19:30:07.935Z,3.95
2022-12-17T19:32:36.592Z,3.75
2022-12-17T19:35:05.655Z,4.15
2022-12-17T19:37:35.472Z,4.00
2022-12-17T19:40:04.095Z,3.90
2022-12-17T19:42:37.400Z,3.50
2022-12-17T19:45:07.398Z,3.90
2022-12-17T19:47:35.878Z,3.10
2022-12-17T19:50:05.379Z,3.80
2022-12-17T19:52:35.193Z,3.53
2022-12-17T19:55:03.904Z,3.70
2022-12-17T19:57:32.699Z,3.60
2022-12-17T20:00:01.425Z,3.90
2022-12-17T20:02:33.072Z,3.83
2022-12-17T20:05:01.789Z,3.67
2022-12-17T20:07:30.306Z,3.95
2022-12-17T20:10:00.147Z,3.60
2022-12-17T20:12:28.775Z,4.03
2022-12-17T20:14:57.423Z,3.50
2022-12-17T20:17:26.243Z,4.00
2022-12-17T20:19:56.412Z,3.70
2022-12-17T20:22:27.274Z,4.10
2022-12-17T20:24:55.870Z,3.80
2022-12-17T20:27:25.602Z,4.03
2022-12-17T20:29:54.316Z,4.30
2022-12-17T20:32:22.891Z,3.78
2022-12-17T20:34:51.580Z,3.78
2022-12-17T20:37:20.314Z,3.85
2022-12-17T20:39:48.747Z,3.60
2022-12-17T20:42:18.069Z,3.67
2022-12-17T20:44:53.239Z,3.75
2022-12-17T20:47:22.315Z,3.35
2022-12-17T20:49:50.747Z,3.60
2022-12-17T20:52:19.888Z,3.22
2022-12-17T20:54:49.295Z,3.85
2022-12-17T20:57:17.748Z,3.78
2022-12-17T20:59:46.211Z,3.67
2022-12-17T21:02:16.719Z,3.30
2022-12-17T21:04:47.811Z,3.85
2022-12-17T21:07:16.265Z,3.53
2022-12-17T21:09:44.688Z,3.92
2022-12-17T21:12:13.656Z,3.40
2022-12-17T21:14:42.077Z,3.67
2022-12-17T21:17:10.585Z,3.65
2022-12-17T21:19:40.679Z,3.90
2022-12-17T21:22:10.195Z,3.95
2022-12-17T21:24:39.657Z,3.63
2022-12-17T21:27:14.269Z,3.78
2022-12-17T21:29:43.341Z,3.90
2022-12-17T21:32:12.044Z,3.58
2022-12-17T21:34:42.056Z,3.05
2022-12-17T21:37:11.138Z,3.53
2022-12-17T21:39:39.635Z,3.70
2022-12-17T21:42:25.535Z,3.92
2022-12-17T21:44:53.996Z,3.80
2022-12-17T21:47:22.841Z,3.83
2022-12-17T21:49:52.602Z,3.45
2022-12-17T21:52:21.066Z,3.50
2022-12-17T21:54:49.511Z,3.05
2022-12-17T21:57:17.966Z,3.22
2022-12-17T21:59:46.475Z,3.63
2022-12-17T22:02:14.963Z,4.10
2022-12-17T22:04:43.594Z,3.90
2022-12-17T22:07:16.437Z,3.85
2022-12-17T22:10:13.127Z,4.03
2022-12-17T22:13:01.958Z,3.90
2022-12-17T22:15:31.988Z,4.35
2022-12-17T22:18:10.017Z,3.60
2022-12-17T22:20:38.796Z,3.65
2022-12-17T22:23:08.827Z,4.28
2022-12-17T22:25:38.335Z,4.10
2022-12-17T22:28:07.278Z,4.40
2022-12-17T22:30:53.096Z,3.92
2022-12-17T22:33:36.949Z,3.80
2022-12-17T22:38:31.807Z,3.92
2022-12-17T22:44:34.070Z,4.03
2022-12-17T22:44:35.486Z,3.50
2022-12-17T22:45:02.037Z,4.25
2022-12-17T22:47:34.736Z,4.28
2022-12-17T22:50:03.203Z,3.70
2022-12-17T22:52:32.496Z,3.53
2022-12-17T22:55:02.800Z,3.80
2022-12-17T22:57:37.719Z,3.42
2022-12-17T23:00:12.781Z,3.53
2022-12-17T23:02:41.314Z,3.78
2022-12-17T23:05:10.142Z,3.55
2022-12-17T23:07:38.533Z,4.10
2022-12-17T23:10:09.026Z,3.70
2022-12-17T23:12:52.480Z,3.80
2022-12-17T23:15:30.742Z,4.00
2022-12-17T23:18:00.754Z,3.17
2022-12-17T23:20:31.995Z,3.67
2022-12-17T23:23:00.690Z,3.80
2022-12-17T23:25:32.342Z,3.45
2022-12-17T23:28:00.893Z,3.97
2022-12-17T23:30:30.413Z,3.65
2022-12-17T23:32:58.933Z,3.67
2022-12-17T23:35:27.378Z,4.03
2022-12-17T23:37:56.170Z,3.90
2022-12-17T23:40:25.813Z,3.83
2022-12-17T23:42:57.364Z,3.90
2022-12-17T23:45:25.729Z,4.07
2022-12-17T23:47:54.179Z,3.40
2022-12-17T23:50:22.592Z,3.90
2022-12-17T23:52:51.022Z,3.85
2022-12-17T23:55:19.595Z,4.25
2022-12-17T23:57:47.997Z,3.72
